Time;durP1;ratioP1;P1;durP2;ratioP2;P2;SDS_P1;SDS_P2;PMS_P1;PMS_P2;Temp;Humidity;BMP_temperature;BMP_pressure;BME280_temperature;BME280_humidity;BME280_pressure;Samples;Min_cycle;Max_cycle;Signal;HPM_P1;HPM_P2
2022/02/05 00:00:28;;;;;;;3.83;1.40;;;;;;;4.44;73.49;100061.03;5071041;28;20123;-75
2022/02/05 00:05:36;;;;;;;2.17;0.95;;;;;;;4.45;73.27;100086.28;5067172;28;20041;-75
2022/02/05 00:08:32;;;;;;;3.05;0.80;;;;;;;4.38;73.80;100098.41;5056761;28;20072;-75
2022/02/05 00:13:42;;;;;;;2.53;0.90;;;;;;;4.39;73.65;100102.78;5074920;28;20488;-75
2022/02/05 00:43:17;;;;;;;3.45;1.08;;;;;;;4.56;72.93;100178.78;5071296;28;20550;-74
2022/02/05 00:45:48;;;;;;;2.03;0.45;;;;;;;4.58;72.66;100161.38;5058044;28;20040;-74
2022/02/05 00:48:14;;;;;;;3.33;0.65;;;;;;;4.64;71.94;100163.19;5070896;28;20111;-75
2022/02/05 00:50:44;;;;;;;3.67;0.68;;;;;;;4.65;71.61;100153.63;5074125;28;20464;-75
2022/02/05 00:53:16;;;;;;;3.05;0.63;;;;;;;4.65;71.73;100172.78;5056250;28;20430;-74
2022/02/05 00:55:50;;;;;;;5.07;0.82;;;;;;;4.68;71.52;100172.81;5070077;28;20029;-75
2022/02/05 00:58:15;;;;;;;5.65;0.68;;;;;;;4.67;71.16;100173.69;5064455;28;20086;-74
2022/02/05 01:00:41;;;;;;;4.20;0.50;;;;;;;4.64;70.23;100165.81;5073974;28;20033;-74
2022/02/05 01:03:06;;;;;;;4.82;0.77;;;;;;;4.65;70.85;100170.16;5054199;28;20082;-75
2022/02/05 01:05:35;;;;;;;3.67;0.60;;;;;;;4.71;70.21;100198.13;5073067;28;20115;-75
2022/02/05 01:08:00;;;;;;;6.63;0.50;;;;;;;4.70;69.67;100180.69;5072808;28;20036;-75
2022/02/05 01:10:26;;;;;;;4.10;0.80;;;;;;;4.69;68.35;100185.03;5069902;28;20047;-75
2022/02/05 01:12:57;;;;;;;4.30;0.73;;;;;;;4.77;68.78;100177.28;5055821;28;20504;-75
2022/02/05 01:15:28;;;;;;;5.95;1.02;;;;;;;4.79;69.16;100194.75;5072994;28;20028;-75
2022/02/05 01:17:59;;;;;;;2.67;0.60;;;;;;;4.81;69.59;100195.63;5072168;28;20039;-75
2022/02/05 01:20:51;;;;;;;5.93;0.80;;;;;;;4.77;69.29;100193.84;5073625;28;20036;-75
2022/02/05 01:23:16;;;;;;;2.47;0.50;;;;;;;4.79;69.55;100207.81;5071728;28;20044;-75
2022/02/05 01:25:48;;;;;;;2.80;0.85;;;;;;;4.79;69.46;100226.13;5069420;28;20032;-75
2022/02/05 01:28:19;;;;;;;4.45;0.52;;;;;;;4.75;69.83;100211.25;5055611;28;20039;-74
2022/02/05 01:30:49;;;;;;;3.28;0.45;;;;;;;4.78;70.50;100226.97;5073791;28;20476;-74
2022/02/05 01:33:35;;;;;;;3.83;0.82;;;;;;;4.81;70.31;100229.63;5073204;28;20115;-74
2022/02/05 01:52:20;;;;;;;5.18;1.00;;;;;;;4.73;69.36;100239.09;5073232;28;20044;-74
2022/02/05 01:55:08;;;;;;;3.83;0.40;;;;;;;4.75;69.32;100247.84;5068360;28;20024;-74
2022/02/05 02:06:06;;;;;;;6.78;0.60;;;;;;;4.46;70.42;100259.66;5050950;28;20029;-74
2022/02/05 02:11:35;;;;;;;5.15;0.77;;;;;;;4.27;71.66;100261.09;5054782;28;20032;-74
2022/02/05 02:14:26;;;;;;;4.53;0.52;;;;;;;4.24;71.45;100269.75;5072232;28;20123;-74
2022/02/05 02:17:32;;;;;;;5.00;0.60;;;;;;;4.30;71.19;100269.00;5072238;28;20036;-74
2022/02/05 02:20:09;;;;;;;10.30;1.48;;;;;;;4.34;71.37;100270.78;5069017;28;20032;-74
2022/02/05 02:27:44;;;;;;;3.47;0.50;;;;;;;4.51;70.12;100285.00;5071144;28;20461;-74
2022/02/05 02:30:16;;;;;;;3.50;0.55;;;;;;;4.54;70.17;100281.56;5069870;28;20040;-75
2022/02/05 02:32:46;;;;;;;4.05;0.60;;;;;;;4.58;70.77;100291.19;5068493;28;20082;-74
2022/02/05 02:35:22;;;;;;;4.93;0.82;;;;;;;4.62;70.49;100293.00;5071701;28;20040;-74
2022/02/05 02:42:45;;;;;;;5.70;0.60;;;;;;;4.58;70.72;100306.84;5072046;28;20467;-74
2022/02/05 02:45:11;;;;;;;5.50;0.98;;;;;;;4.59;70.70;100308.63;5071612;28;20064;-74
2022/02/05 02:47:41;;;;;;;5.18;0.70;;;;;;;4.58;71.01;100306.84;5071660;28;20074;-74
2022/02/05 02:50:15;;;;;;;3.83;0.77;;;;;;;4.54;70.99;100308.56;5071990;28;20076;-74
2022/02/05 02:58:09;;;;;;;4.32;0.90;;;;;;;4.39;71.62;100311.81;5071355;28;20050;-74
2022/02/05 03:00:35;;;;;;;5.93;1.30;;;;;;;4.37;70.95;100313.50;5071639;28;20140;-73
2022/02/05 03:03:01;;;;;;;7.95;0.88;;;;;;;4.35;71.19;100327.44;5071264;28;20539;-74
2022/02/05 03:05:26;;;;;;;5.70;1.27;;;;;;;4.37;70.91;100326.56;5071348;28;20400;-74
2022/02/05 03:07:51;;;;;;;3.63;1.10;;;;;;;4.29;71.24;100325.56;5071237;28;20333;-74
2022/02/05 03:10:17;;;;;;;9.10;1.73;;;;;;;4.14;71.54;100330.59;5071287;28;20032;-74
2022/02/05 03:12:43;;;;;;;4.20;1.00;;;;;;;4.11;72.12;100347.09;5071329;28;20473;-74
2022/02/05 03:15:15;;;;;;;6.78;1.50;;;;;;;4.07;71.99;100339.16;5071205;28;20074;-74
2022/02/05 03:17:53;;;;;;;10.38;1.25;;;;;;;3.86;72.39;100348.38;5070534;28;20036;-74
2022/02/05 03:20:18;;;;;;;8.18;1.70;;;;;;;3.74;72.62;100343.78;5053301;28;20479;-74
2022/02/05 03:22:43;;;;;;;5.63;1.45;;;;;;;3.60;72.82;100345.28;5073416;28;20041;-74
2022/02/05 03:25:09;;;;;;;3.70;1.30;;;;;;;3.47;73.84;100348.50;5067246;28;20057;-74
2022/02/05 03:27:34;;;;;;;8.95;1.50;;;;;;;3.36;73.69;100353.50;5071129;28;20064;-74
2022/02/05 03:30:00;;;;;;;7.15;1.30;;;;;;;3.34;73.92;100346.50;5071172;28;20037;-74
2022/02/05 03:32:26;;;;;;;5.60;1.60;;;;;;;3.26;74.01;100343.72;5069637;28;20052;-74
2022/02/05 03:34:52;;;;;;;7.68;2.53;;;;;;;3.20;74.53;100361.88;5070948;28;20090;-74
2022/02/05 03:37:20;;;;;;;5.30;1.30;;;;;;;3.13;74.40;100370.41;5071135;28;20101;-74
2022/02/05 03:39:45;;;;;;;5.60;1.20;;;;;;;3.14;74.91;100372.16;5070918;28;20016;-74
2022/02/05 03:42:11;;;;;;;6.32;1.30;;;;;;;3.20;74.52;100382.75;5070988;28;20044;-74
2022/02/05 03:44:36;;;;;;;11.00;1.65;;;;;;;3.18;74.79;100392.25;5070858;28;20033;-74
2022/02/05 03:47:02;;;;;;;7.75;1.52;;;;;;;3.24;74.88;100395.84;5052652;28;20036;-74
2022/02/05 03:49:27;;;;;;;8.63;1.70;;;;;;;3.16;74.73;100389.59;5071125;28;20606;-74
2022/02/05 03:51:54;;;;;;;6.72;1.60;;;;;;;3.25;74.90;100391.53;5070996;28;20089;-74
2022/02/05 03:54:20;;;;;;;7.20;1.75;;;;;;;3.27;74.86;100393.34;5070714;28;20392;-74
2022/02/05 03:56:47;;;;;;;5.57;1.42;;;;;;;3.23;74.72;100394.09;5066274;28;20479;-73
2022/02/05 03:59:12;;;;;;;9.10;2.03;;;;;;;3.18;75.23;100406.16;5070938;28;20508;-74
2022/02/05 04:01:38;;;;;;;5.35;1.35;;;;;;;3.23;75.37;100414.09;5070895;28;20040;-75
2022/02/05 04:04:03;;;;;;;8.43;1.73;;;;;;;3.31;74.68;100407.31;5070253;28;20086;-74
2022/02/05 04:06:29;;;;;;;5.80;1.70;;;;;;;3.39;74.71;100410.97;5070721;28;20098;-74
2022/02/05 04:08:58;;;;;;;4.97;1.27;;;;;;;3.42;74.46;100405.78;5070590;28;20041;-74
2022/02/05 04:16:47;;;;;;;9.07;1.98;;;;;;;3.50;73.99;100412.06;5068773;28;20047;-74
2022/02/05 04:19:13;;;;;;;6.72;1.70;;;;;;;3.59;74.17;100418.31;5070570;28;20095;-74
2022/02/05 04:21:38;;;;;;;9.43;1.67;;;;;;;3.55;74.20;100406.94;5070639;28;20028;-74
2022/02/05 04:24:04;;;;;;;9.05;1.65;;;;;;;3.52;74.34;100422.53;5070443;28;20040;-74
2022/02/05 04:26:30;;;;;;;6.68;1.45;;;;;;;3.49;74.25;100418.13;5063656;28;20043;-74
2022/02/05 04:28:56;;;;;;;8.02;1.73;;;;;;;3.57;74.38;100415.69;5069159;28;20033;-74
2022/02/05 04:31:22;;;;;;;6.13;1.55;;;;;;;3.56;74.10;100418.25;5070487;28;20059;-74
2022/02/05 04:33:48;;;;;;;6.60;1.70;;;;;;;3.62;74.32;100415.78;5069889;28;20060;-74
2022/02/05 04:36:14;;;;;;;7.15;1.38;;;;;;;3.62;74.04;100415.78;5070146;28;20063;-74
2022/02/05 04:38:43;;;;;;;8.98;1.65;;;;;;;3.66;74.45;100418.47;5070596;28;20033;-74
2022/02/05 04:41:20;;;;;;;8.32;1.52;;;;;;;3.64;73.83;100420.19;5070435;28;20479;-74
2022/02/05 04:46:56;;;;;;;4.07;1.67;;;;;;;3.66;73.34;100422.81;5070390;28;20051;-75
2022/02/05 04:52:20;;;;;;;6.90;1.90;;;;;;;3.63;73.53;100436.66;5069761;28;20492;-75
2022/02/05 04:55:04;;;;;;;9.57;1.80;;;;;;;3.66;73.48;100435.84;5073474;28;20033;-74
2022/02/05 05:05:25;;;;;;;5.55;1.83;;;;;;;3.33;74.22;100446.44;5070830;28;20047;-74
2022/02/05 05:08:14;;;;;;;5.88;1.35;;;;;;;3.17;75.09;100451.34;5073711;28;20048;-74
2022/02/05 05:15:13;;;;;;;3.55;1.58;;;;;;;2.98;75.70;100468.28;5055896;28;20488;-77
2022/02/05 05:19:16;;;;;;;6.43;2.25;;;;;;;2.86;76.66;100457.59;5073005;28;20418;-74
2022/02/05 05:21:41;;;;;;;7.97;1.75;;;;;;;2.82;76.56;100456.63;5073625;28;20068;-75
2022/02/05 05:24:07;;;;;;;7.20;1.90;;;;;;;2.76;77.32;100460.81;5072930;28;20071;-74
2022/02/05 05:26:32;;;;;;;9.48;2.70;;;;;;;2.75;77.13;100461.63;5069501;28;20064;-74
2022/02/05 05:28:58;;;;;;;6.40;2.10;;;;;;;2.76;77.13;100455.59;5054708;28;20072;-74
2022/02/05 05:31:23;;;;;;;5.85;2.17;;;;;;;2.70;77.71;100450.22;5072875;28;20036;-74
2022/02/05 05:33:48;;;;;;;6.57;1.95;;;;;;;2.71;77.82;100459.81;5054653;28;20040;-74
2022/02/05 05:36:14;;;;;;;6.13;2.22;;;;;;;2.66;77.79;100453.63;5072726;28;20039;-74
2022/02/05 05:38:39;;;;;;;9.73;2.92;;;;;;;2.57;78.26;100462.97;5073058;28;20036;-75
2022/02/05 05:41:04;;;;;;;9.25;2.75;;;;;;;2.57;78.02;100462.97;5073113;28;20040;-75
2022/02/05 05:51:08;;;;;;;6.53;2.30;;;;;;;2.53;78.57;100460.25;5072936;28;20143;-74
2022/02/05 05:53:34;;;;;;;5.90;2.28;;;;;;;2.52;78.51;100466.31;5072539;28;20115;-75
2022/02/05 05:56:02;;;;;;;7.28;2.10;;;;;;;2.49;78.31;100468.81;5068746;28;20123;-75
2022/02/05 05:58:27;;;;;;;8.13;2.42;;;;;;;2.50;78.54;100478.41;5072928;28;20496;-74
2022/02/05 06:00:52;;;;;;;6.85;2.00;;;;;;;2.54;78.36;100483.75;5054963;28;20032;-75
2022/02/05 06:03:18;;;;;;;6.53;2.10;;;;;;;2.52;78.05;100480.22;5072430;28;20043;-74
2022/02/05 06:05:43;;;;;;;7.97;2.28;;;;;;;2.56;78.00;100488.97;5072537;28;20032;-74
2022/02/05 06:08:09;;;;;;;6.85;1.90;;;;;;;2.60;78.10;100494.31;5072581;28;20041;-74
2022/02/05 06:10:34;;;;;;;9.25;2.50;;;;;;;2.64;77.80;100505.69;5072617;28;20090;-75
2022/02/05 06:13:00;;;;;;;8.40;2.70;;;;;;;2.82;77.63;100497.44;5072738;28;20087;-75
2022/02/05 06:15:25;;;;;;;7.05;2.03;;;;;;;2.93;76.77;100503.78;5072254;28;20436;-75
2022/02/05 06:17:51;;;;;;;10.27;2.65;;;;;;;3.02;76.72;100505.75;5054248;28;20035;-75
2022/02/05 06:20:17;;;;;;;5.75;2.13;;;;;;;3.10;76.72;100516.38;5072420;28;20043;-74
2022/02/05 06:22:43;;;;;;;7.25;2.08;;;;;;;3.18;76.06;100513.09;5072498;28;20036;-74
2022/02/05 06:25:09;;;;;;;4.65;2.40;;;;;;;3.27;75.48;100509.81;5052034;28;20128;-74
2022/02/05 06:27:34;;;;;;;6.10;2.38;;;;;;;3.35;75.24;100510.84;5052603;28;20044;-74
2022/02/05 06:30:00;;;;;;;6.57;1.98;;;;;;;3.34;75.40;100514.31;5072107;28;20035;-75
2022/02/05 06:32:25;;;;;;;7.57;2.38;;;;;;;3.25;75.15;100519.34;5071113;28;20039;-75
2022/02/05 06:34:50;;;;;;;7.75;2.08;;;;;;;3.36;74.76;100527.41;5071682;28;20079;-75
2022/02/05 06:37:17;;;;;;;7.75;2.30;;;;;;;3.33;74.65;100525.63;5070566;28;20452;-75
2022/02/05 06:39:43;;;;;;;8.40;2.83;;;;;;;3.30;74.82;100543.78;5072225;28;20113;-74
2022/02/05 06:42:08;;;;;;;6.72;1.98;;;;;;;3.31;74.49;100537.75;5070739;28;20492;-74
2022/02/05 06:44:34;;;;;;;7.72;2.25;;;;;;;3.16;75.42;100539.97;5071638;28;20060;-74
2022/02/05 06:46:59;;;;;;;5.63;1.95;;;;;;;3.17;75.51;100539.13;5071959;28;20032;-75
2022/02/05 06:49:26;;;;;;;6.45;2.40;;;;;;;3.06;75.56;100552.78;5071607;28;20089;-75
2022/02/05 06:51:52;;;;;;;5.45;2.40;;;;;;;3.04;75.87;100549.28;5070641;28;20040;-74
2022/02/05 06:54:18;;;;;;;6.03;2.22;;;;;;;3.05;75.75;100548.41;5071463;28;20040;-74
2022/02/05 06:56:43;;;;;;;8.05;2.30;;;;;;;3.08;75.93;100561.53;5070076;28;20054;-75
2022/02/05 06:59:08;;;;;;;6.60;2.55;;;;;;;3.13;75.16;100553.81;5071049;28;20403;-75
2022/02/05 07:01:34;;;;;;;6.40;2.13;;;;;;;3.06;76.00;100558.00;5071202;28;20448;-75
2022/02/05 07:03:59;;;;;;;8.45;2.33;;;;;;;3.05;75.77;100564.06;5070527;28;20037;-76
2022/02/05 07:06:24;;;;;;;5.72;2.67;;;;;;;3.09;75.64;100562.41;5071484;28;20079;-75
2022/02/05 07:08:50;;;;;;;8.80;3.20;;;;;;;3.11;75.50;100557.25;5071292;28;20041;-75
2022/02/05 07:11:16;;;;;;;9.13;3.72;;;;;;;3.05;75.67;100553.63;5071323;28;20476;-74
2022/02/05 07:13:42;;;;;;;6.57;2.25;;;;;;;3.06;76.13;100558.00;5071317;28;20047;-75
2022/02/05 07:16:19;;;;;;;6.88;3.05;;;;;;;3.09;75.81;100567.63;5070746;28;20135;-75
2022/02/05 07:21:16;;;;;;;7.50;2.92;;;;;;;3.20;75.29;100568.78;5071140;28;20094;-74
2022/02/05 07:31:35;;;;;;;6.93;1.95;;;;;;;3.63;74.04;100569.78;5068409;28;20075;-74
2022/02/05 07:34:01;;;;;;;6.75;2.13;;;;;;;3.81;72.47;100566.69;5070471;28;20055;-75
2022/02/05 07:36:26;;;;;;;8.77;2.75;;;;;;;4.01;72.32;100574.06;5052871;28;20037;-74
2022/02/05 07:38:51;;;;;;;5.75;2.17;;;;;;;4.21;71.43;100580.59;5070887;28;20094;-75
2022/02/05 07:41:17;;;;;;;7.63;2.15;;;;;;;4.25;70.69;100579.81;5071114;28;20048;-75
2022/02/05 07:43:42;;;;;;;7.47;1.85;;;;;;;4.17;70.96;100587.50;5070956;28;20028;-75
2022/02/05 07:46:10;;;;;;;9.30;2.33;;;;;;;4.24;70.75;100588.47;5052886;28;20040;-75
2022/02/05 07:48:36;;;;;;;5.18;1.60;;;;;;;4.27;70.23;100577.22;5070797;28;20555;-75
2022/02/05 07:51:02;;;;;;;8.05;2.40;;;;;;;4.35;70.57;100586.13;5071065;28;20457;-75
2022/02/05 07:53:29;;;;;;;8.82;2.83;;;;;;;4.36;69.91;100612.25;5070607;28;20056;-74
2022/02/05 07:55:54;;;;;;;7.90;2.15;;;;;;;4.38;70.05;100591.41;5049267;28;20033;-75
2022/02/05 07:58:19;;;;;;;6.50;2.65;;;;;;;4.44;69.85;100604.56;5069165;28;20060;-74
2022/02/05 08:00:44;;;;;;;8.80;2.50;;;;;;;4.49;69.64;100604.66;5069707;28;20044;-75
2022/02/05 08:03:10;;;;;;;9.10;2.00;;;;;;;4.47;69.50;100603.75;5069902;28;20036;-74
2022/02/05 08:05:35;;;;;;;7.20;2.25;;;;;;;4.53;69.52;100599.53;5070465;28;20040;-74
2022/02/05 08:08:03;;;;;;;8.57;2.17;;;;;;;4.54;69.79;100600.41;5071350;28;20036;-75
2022/02/05 08:10:33;;;;;;;7.60;2.30;;;;;;;4.58;69.42;100615.28;5057049;28;20053;-75
2022/02/05 08:13:00;;;;;;;8.50;2.00;;;;;;;4.64;69.15;100606.69;5070450;28;20044;-75
2022/02/05 08:15:28;;;;;;;7.63;2.30;;;;;;;4.64;69.30;100620.66;5069690;28;20055;-74
2022/02/05 08:17:54;;;;;;;6.50;2.40;;;;;;;4.73;69.42;100631.28;5051347;28;20040;-75
2022/02/05 08:20:20;;;;;;;9.23;2.22;;;;;;;4.77;68.67;100622.66;5069142;28;20028;-75
2022/02/05 08:22:45;;;;;;;5.22;1.88;;;;;;;4.72;68.36;100633.88;5068630;28;20082;-75
2022/02/05 08:25:10;;;;;;;6.53;2.03;;;;;;;4.74;69.01;100632.16;5067994;28;20060;-74
2022/02/05 08:27:36;;;;;;;5.65;1.92;;;;;;;4.87;68.52;100636.75;5068657;28;20060;-75
2022/02/05 08:30:07;;;;;;;9.65;1.60;;;;;;;4.92;68.27;100636.84;5073547;28;20078;-74
2022/02/05 08:32:33;;;;;;;7.38;2.00;;;;;;;4.94;68.18;100637.75;5073379;28;20107;-75
2022/02/05 08:35:00;;;;;;;6.85;2.10;;;;;;;5.00;67.75;100636.16;5070788;28;20147;-75
2022/02/05 08:37:30;;;;;;;6.20;1.63;;;;;;;5.00;67.28;100646.63;5072927;28;20036;-75
2022/02/05 08:39:56;;;;;;;6.18;1.83;;;;;;;5.06;66.52;100651.06;5072763;28;20451;-75
2022/02/05 08:42:21;;;;;;;8.77;2.13;;;;;;;5.21;66.50;100680.13;5071786;28;20040;-75
2022/02/05 08:44:47;;;;;;;5.95;1.90;;;;;;;5.16;66.89;100652.09;5071990;28;20029;-75
2022/02/05 08:47:12;;;;;;;5.65;2.05;;;;;;;5.24;66.63;100661.00;5073080;28;20415;-75
2022/02/05 08:49:38;;;;;;;7.18;2.20;;;;;;;5.30;67.32;100661.09;5088682;28;20603;-75
2022/02/05 08:52:07;;;;;;;7.28;2.00;;;;;;;5.33;66.66;100660.25;5073867;28;20059;-76
2022/02/05 08:54:32;;;;;;;6.95;1.80;;;;;;;5.35;66.42;100671.66;5073328;28;20085;-74
2022/02/05 08:56:58;;;;;;;4.40;1.52;;;;;;;5.41;66.74;100684.81;5070467;28;20037;-75
2022/02/05 08:59:25;;;;;;;7.20;2.42;;;;;;;5.41;65.96;100680.47;5074377;28;20020;-75
2022/02/05 09:01:57;;;;;;;6.82;1.90;;;;;;;5.44;65.70;100682.25;5056062;28;20037;-75
2022/02/05 09:04:44;;;;;;;6.63;1.77;;;;;;;5.36;65.83;100697.81;5069873;28;20404;-75
2022/02/05 09:07:10;;;;;;;7.07;2.90;;;;;;;5.41;65.46;100711.88;5050277;28;20086;-76
2022/02/05 09:09:46;;;;;;;7.45;2.30;;;;;;;5.42;65.62;100702.28;5073700;28;20029;-76
2022/02/05 09:12:29;;;;;;;6.65;1.60;;;;;;;5.48;65.37;100699.78;5073852;28;20059;-76
2022/02/05 09:14:54;;;;;;;9.60;2.05;;;;;;;5.47;65.35;100690.16;5073609;28;20177;-76
2022/02/05 09:17:20;;;;;;;7.18;2.03;;;;;;;5.36;65.96;100699.56;5073704;28;20040;-76
2022/02/05 09:19:46;;;;;;;9.55;2.95;;;;;;;5.11;68.96;100745.31;5071894;28;20163;-75
2022/02/05 09:22:11;;;;;;;8.98;2.60;;;;;;;3.91;77.08;100741.00;5053866;28;20033;-75
2022/02/05 09:24:37;;;;;;;4.93;2.05;;;;;;;3.30;80.85;100749.84;5072856;28;20036;-75
2022/02/05 09:27:06;;;;;;;5.35;1.80;;;;;;;3.02;83.46;100767.38;5070212;28;20041;-76
2022/02/05 09:29:37;;;;;;;3.72;0.95;;;;;;;2.95;83.94;100767.16;5050804;28;20086;-75
2022/02/05 09:32:03;;;;;;;3.10;1.00;;;;;;;2.77;85.31;100767.50;5072048;28;20400;-76
2022/02/05 09:34:29;;;;;;;4.25;1.30;;;;;;;2.70;85.97;100752.53;5072314;28;20037;-76
2022/02/05 09:36:54;;;;;;;4.32;1.30;;;;;;;2.76;86.03;100760.53;5072871;28;20048;-76
2022/02/05 09:39:19;;;;;;;6.47;1.30;;;;;;;2.89;85.75;100752.22;5072682;28;20036;-77
2022/02/05 09:41:45;;;;;;;6.53;1.20;;;;;;;2.96;84.90;100759.41;5054468;28;20036;-76
2022/02/05 09:44:11;;;;;;;7.15;1.30;;;;;;;2.92;85.83;100762.75;5073545;28;20040;-77
2022/02/05 09:46:38;;;;;;;6.20;1.15;;;;;;;2.98;85.31;100767.25;5069760;28;20123;-77
2022/02/05 09:49:04;;;;;;;4.32;1.50;;;;;;;3.01;84.86;100763.00;5055403;28;20040;-77
2022/02/05 09:51:36;;;;;;;8.57;2.70;;;;;;;3.12;84.60;100765.91;5055715;28;20556;-77
2022/02/05 09:54:04;;;;;;;7.13;2.05;;;;;;;3.36;84.34;100768.31;5072905;28;20403;-77
2022/02/05 09:56:35;;;;;;;6.25;1.80;;;;;;;3.52;83.22;100764.38;5069777;28;20033;-76
2022/02/05 09:59:01;;;;;;;5.63;2.00;;;;;;;3.62;83.36;100762.91;5055630;28;20510;-77
2022/02/05 10:01:31;;;;;;;8.18;1.85;;;;;;;3.80;82.08;100773.81;5073161;28;20384;-77
2022/02/05 10:03:57;;;;;;;6.22;1.80;;;;;;;3.88;81.71;100777.47;5070867;28;20115;-77
2022/02/05 10:06:28;;;;;;;7.07;1.92;;;;;;;4.05;81.83;100777.88;5056014;28;20068;-77
2022/02/05 10:09:07;;;;;;;5.82;1.65;;;;;;;4.31;81.89;100770.66;5070313;28;20102;-77
2022/02/05 10:11:49;;;;;;;6.30;1.92;;;;;;;4.51;80.19;100775.47;5070955;28;20039;-77
2022/02/05 10:14:21;;;;;;;5.90;1.80;;;;;;;4.60;79.48;100784.38;5071606;28;20042;-77
2022/02/05 10:16:53;;;;;;;5.63;1.77;;;;;;;4.67;78.99;100774.97;5070442;28;20133;-77
2022/02/05 10:19:22;;;;;;;6.37;1.90;;;;;;;4.76;78.59;100767.28;5072457;28;20377;-78
2022/02/05 10:22:08;;;;;;;8.25;2.45;;;;;;;4.86;76.26;100763.16;5057711;28;20036;-77
2022/02/05 10:24:34;;;;;;;7.40;2.47;;;;;;;5.13;73.15;100778.50;5073436;28;20044;-77
2022/02/05 10:27:00;;;;;;;8.20;2.10;;;;;;;5.29;72.80;100769.22;5072687;28;20442;-77
2022/02/05 10:29:26;;;;;;;8.38;2.72;;;;;;;5.56;71.49;100765.38;5072294;28;20033;-77
2022/02/05 10:32:12;;;;;;;9.75;1.95;;;;;;;5.77;67.25;100759.63;5072242;28;20043;-77
2022/02/05 10:34:55;;;;;;;10.20;1.70;;;;;;;5.80;64.87;100767.53;5069192;28;20102;-77
2022/02/05 10:37:26;;;;;;;9.50;1.80;;;;;;;5.88;62.45;100766.81;5072228;28;20042;-76
2022/02/05 10:45:12;;;;;;;7.38;1.38;;;;;;;6.14;60.33;100772.50;5066465;28;20073;-74
2022/02/05 10:47:59;;;;;;;7.53;1.70;;;;;;;6.26;61.26;100773.53;5056669;28;20040;-75
2022/02/05 10:50:27;;;;;;;7.75;1.83;;;;;;;6.44;60.02;100760.69;5066449;28;20123;-75
2022/02/05 10:53:07;;;;;;;4.45;1.30;;;;;;;6.47;59.51;100783.47;5052748;28;20028;-74
2022/02/05 10:58:27;;;;;;;8.88;1.92;;;;;;;6.66;59.71;100782.00;5071884;28;20032;-74
2022/02/05 11:06:04;;;;;;;8.40;1.88;;;;;;;6.82;58.54;100783.97;5071180;28;20040;-75
2022/02/05 11:08:29;;;;;;;7.72;1.70;;;;;;;6.64;56.57;100788.97;5053428;28;20041;-75
2022/02/05 11:11:21;;;;;;;8.38;1.38;;;;;;;6.77;58.63;100760.28;5072884;28;20058;-75
2022/02/05 11:19:10;;;;;;;6.38;2.20;;;;;;;6.85;56.41;100810.22;5068055;28;20039;-75
2022/02/05 11:21:36;;;;;;;6.35;1.90;;;;;;;6.92;56.75;100771.84;5070922;28;20044;-76
2022/02/05 11:24:05;;;;;;;6.47;1.63;;;;;;;6.95;57.04;100774.50;5069666;28;20040;-75
2022/02/05 11:26:31;;;;;;;9.43;1.80;;;;;;;6.87;53.85;100792.78;5066723;28;20055;-75
2022/02/05 11:29:06;;;;;;;8.10;1.92;;;;;;;6.92;54.86;100777.97;5071055;28;20481;-75
2022/02/05 11:31:36;;;;;;;8.90;1.60;;;;;;;7.11;54.83;100775.56;5070350;28;20145;-75
2022/02/05 11:34:14;;;;;;;5.80;1.45;;;;;;;7.22;53.89;100781.81;5067296;28;20107;-75
2022/02/05 11:36:44;;;;;;;8.73;2.00;;;;;;;7.29;55.56;100775.78;5070876;28;20070;-75
2022/02/05 11:39:17;;;;;;;8.65;1.52;;;;;;;7.13;53.46;100769.47;5070979;28;20025;-75
2022/02/05 11:41:44;;;;;;;12.65;2.47;;;;;;;7.00;54.25;100776.31;5071064;28;20028;-75
2022/02/05 11:44:22;;;;;;;11.68;1.90;;;;;;;7.03;55.02;100768.47;5066751;28;20063;-74
2022/02/05 11:47:06;;;;;;;6.93;1.58;;;;;;;6.84;54.62;100770.84;5070681;28;20048;-73
2022/02/05 11:49:53;;;;;;;7.40;1.10;;;;;;;6.78;54.37;100779.53;5050897;28;20044;-75
2022/02/05 11:52:36;;;;;;;6.70;1.40;;;;;;;6.69;55.49;100771.56;5068924;28;20044;-75
2022/02/05 11:55:13;;;;;;;6.32;1.92;;;;;;;6.85;55.45;100775.25;5065699;28;20044;-75
2022/02/05 11:57:42;;;;;;;6.28;1.50;;;;;;;7.02;55.05;100765.81;5041375;28;20040;-75
2022/02/05 12:00:18;;;;;;;5.13;1.67;;;;;;;7.20;54.95;100775.66;5072234;28;20092;-75
2022/02/05 12:02:51;;;;;;;7.22;1.58;;;;;;;7.00;53.95;100834.06;5076284;28;20044;-74
2022/02/05 12:05:19;;;;;;;;;;;;;;;7.00;55.07;100781.56;5077131;28;20036;-75
2022/02/05 12:08:01;;;;;;;6.93;1.50;;;;;;;6.97;54.42;100784.16;5077315;28;19919;-75
2022/02/05 12:10:47;;;;;;;7.68;1.40;;;;;;;6.87;53.74;100791.91;5077591;28;20124;-75
2022/02/05 12:13:23;;;;;;;5.28;1.20;;;;;;;6.65;52.92;100799.47;5075563;28;20119;-75
2022/02/05 12:16:10;;;;;;;8.15;1.70;;;;;;;6.84;52.45;100808.47;5073433;28;20048;-75
2022/02/05 12:18:55;;;;;;;9.18;1.40;;;;;;;7.15;53.21;100786.13;5073474;28;20610;-75
2022/02/05 12:21:28;;;;;;;6.18;1.35;;;;;;;7.34;52.42;100786.34;5073647;28;20048;-76
2022/02/05 12:26:20;;;;;;;7.63;1.58;;;;;;;7.71;52.37;100803.38;5072981;28;20085;-75
2022/02/05 12:28:47;;;;;;;5.72;1.58;;;;;;;7.52;51.53;100777.75;5059186;28;20064;-75
2022/02/05 12:31:18;;;;;;;7.28;1.58;;;;;;;7.33;52.19;100780.19;5077062;28;20043;-75
2022/02/05 12:34:08;;;;;;;4.65;1.20;;;;;;;7.33;52.38;100784.56;5076442;28;20056;-76
2022/02/05 12:36:48;;;;;;;4.78;1.38;;;;;;;7.16;53.30;100777.38;5076037;28;20055;-75
2022/02/05 12:39:17;;;;;;;5.90;1.40;;;;;;;7.22;52.14;100774.81;5075193;28;20036;-75
2022/02/05 12:42:14;;;;;;;7.68;1.30;;;;;;;7.65;52.71;100766.50;5076844;28;20703;-76
2022/02/05 12:44:42;;;;;;;8.93;2.22;;;;;;;7.75;51.96;100760.47;5085225;28;20052;-75
2022/02/05 12:47:14;;;;;;;4.32;1.15;;;;;;;7.73;52.88;100780.63;5076826;28;20055;-75
2022/02/05 12:49:48;;;;;;;;;;;;;;;7.52;52.17;100769.88;5077232;28;20043;-76
2022/02/05 12:52:15;;;;;;;6.00;1.38;;;;;;;7.44;52.25;100773.34;5076895;28;19926;-75
2022/02/05 12:54:48;;;;;;;6.32;1.50;;;;;;;7.34;52.14;100781.97;5076754;28;20028;-75
2022/02/05 12:57:17;;;;;;;7.45;1.50;;;;;;;7.29;52.72;100753.91;5074167;28;20063;-75
2022/02/05 12:59:42;;;;;;;6.95;1.65;;;;;;;7.24;53.88;100775.72;5077062;28;20029;-76
2022/02/05 13:02:10;;;;;;;8.15;1.95;;;;;;;7.24;53.96;100787.97;5077559;28;20040;-75
2022/02/05 13:04:37;;;;;;;6.43;1.70;;;;;;;7.22;54.12;100784.44;5058266;28;20488;-75
2022/02/05 13:07:14;;;;;;;8.85;1.75;;;;;;;7.41;52.49;100775.94;5076681;28;20411;-76
2022/02/05 13:12:11;;;;;;;7.65;1.25;;;;;;;7.72;48.48;100815.63;5077101;28;20094;-76
2022/02/05 13:14:38;;;;;;;6.10;1.60;;;;;;;7.50;49.54;100774.25;5050634;28;20597;-76
2022/02/05 13:17:10;;;;;;;6.57;1.20;;;;;;;7.29;49.44;100793.28;5073213;28;20052;-76
2022/02/05 13:20:05;;;;;;;6.43;1.10;;;;;;;7.14;49.12;100783.47;5073133;28;20035;-76
2022/02/05 13:27:50;;;;;;;6.78;1.33;;;;;;;7.08;48.85;100772.91;5072404;28;20047;-75
2022/02/05 13:36:10;;;;;;;5.00;1.20;;;;;;;6.95;48.09;100785.88;5069420;28;20043;-75
2022/02/05 13:41:09;;;;;;;6.22;0.90;;;;;;;7.06;50.11;100791.25;5073453;28;20125;-77
2022/02/05 13:43:42;;;;;;;4.85;1.15;;;;;;;7.06;50.42;100772.00;5069615;28;20037;-76
2022/02/05 13:46:18;;;;;;;5.85;1.20;;;;;;;7.23;50.49;100771.34;5054422;28;20032;-76
2022/02/05 13:48:43;;;;;;;7.18;1.20;;;;;;;7.79;49.53;100762.28;5070018;28;20044;-78
2022/02/05 13:51:09;;;;;;;4.57;0.93;;;;;;;8.00;49.87;100766.84;5073726;28;20064;-77
2022/02/05 13:53:48;;;;;;;4.15;0.90;;;;;;;8.20;48.96;100755.56;5073507;28;20043;-77
2022/02/05 13:56:13;;;;;;;3.70;1.10;;;;;;;8.00;48.90;100787.84;5066918;28;20037;-77
2022/02/05 13:58:39;;;;;;;4.22;1.23;;;;;;;7.57;49.31;100758.59;5073490;28;20066;-78
2022/02/05 14:01:05;;;;;;;5.07;1.30;;;;;;;7.50;49.35;100771.63;5073729;28;20029;-78
2022/02/05 14:03:35;;;;;;;5.15;1.15;;;;;;;7.54;50.14;100769.03;5055786;28;20086;-78
2022/02/05 14:06:11;;;;;;;5.50;1.35;;;;;;;7.52;50.19;100768.16;5055238;28;20089;-79
2022/02/05 14:08:40;;;;;;;4.32;1.70;;;;;;;7.67;50.29;100765.66;5072201;28;20048;-78
2022/02/05 14:11:07;;;;;;;6.82;1.48;;;;;;;7.49;50.69;100778.59;5037534;28;20040;-79
2022/02/05 14:13:33;;;;;;;7.63;2.83;;;;;;;7.45;51.10;100769.84;5073521;28;20492;-78
2022/02/05 14:16:01;;;;;;;4.88;1.35;;;;;;;7.43;51.79;100779.44;5072385;28;20036;-78
2022/02/05 14:18:28;;;;;;;5.32;1.30;;;;;;;7.38;51.94;100794.25;5072648;28;20040;-78
2022/02/05 14:20:56;;;;;;;6.63;1.30;;;;;;;7.37;51.04;100787.25;5038372;28;20025;-78